sensor_id;sensor_type;location;lat;lon;timestamp;P1;durP1;ratioP1;P2;durP2;ratioP2
21014;SDS011;19207;-23.482;-46.500;2022-08-19T00:00:14;13.18;;;5.57;;
21014;SDS011;19207;-23.482;-46.500;2022-08-19T00:03:02;14.23;;;5.55;;
21014;SDS011;19207;-23.482;-46.500;2022-08-19T00:05:48;20.05;;;6.00;;
21014;SDS011;19207;-23.482;-46.500;2022-08-19T00:08:34;21.58;;;6.10;;
21014;SDS011;19207;-23.482;-46.500;2022-08-19T00:11:21;13.18;;;5.40;;
21014;SDS011;19207;-23.482;-46.500;2022-08-19T00:14:08;12.50;;;5.10;;
21014;SDS011;19207;-23.482;-46.500;2022-08-19T00:16:55;13.00;;;5.25;;
21014;SDS011;19207;-23.482;-46.500;2022-08-19T00:19:41;12.00;;;5.80;;
21014;SDS011;19207;-23.482;-46.500;2022-08-19T00:22:28;21.27;;;5.72;;
21014;SDS011;19207;-23.482;-46.500;2022-08-19T00:25:14;10.20;;;4.62;;
21014;SDS011;19207;-23.482;-46.500;2022-08-19T00:28:01;11.50;;;4.85;;
21014;SDS011;19207;-23.482;-46.500;2022-08-19T00:30:48;10.63;;;5.07;;
21014;SDS011;19207;-23.482;-46.500;2022-08-19T00:33:37;15.05;;;5.40;;
21014;SDS011;19207;-23.482;-46.500;2022-08-19T00:36:24;12.75;;;5.03;;
21014;SDS011;19207;-23.482;-46.500;2022-08-19T00:39:11;15.57;;;5.07;;
21014;SDS011;19207;-23.482;-46.500;2022-08-19T00:41:58;13.57;;;5.20;;
21014;SDS011;19207;-23.482;-46.500;2022-08-19T00:44:44;15.93;;;5.95;;
21014;SDS011;19207;-23.482;-46.500;2022-08-19T00:47:31;11.05;;;5.28;;
21014;SDS011;19207;-23.482;-46.500;2022-08-19T00:50:18;12.60;;;5.20;;
21014;SDS011;19207;-23.482;-46.500;2022-08-19T00:53:06;9.52;;;4.60;;
21014;SDS011;19207;-23.482;-46.500;2022-08-19T00:55:52;11.15;;;4.55;;
21014;SDS011;19207;-23.482;-46.500;2022-08-19T00:58:39;7.10;;;3.62;;
21014;SDS011;19207;-23.482;-46.500;2022-08-19T01:01:26;12.05;;;3.83;;
21014;SDS011;19207;-23.482;-46.500;2022-08-19T01:04:13;13.98;;;4.18;;
21014;SDS011;19207;-23.482;-46.500;2022-08-19T01:06:59;11.77;;;3.87;;
21014;SDS011;19207;-23.482;-46.500;2022-08-19T01:09:47;12.20;;;3.95;;
21014;SDS011;19207;-23.482;-46.500;2022-08-19T01:12:33;8.02;;;3.78;;
21014;SDS011;19207;-23.482;-46.500;2022-08-19T01:15:22;12.15;;;4.20;;
21014;SDS011;19207;-23.482;-46.500;2022-08-19T01:18:11;8.18;;;4.20;;
21014;SDS011;19207;-23.482;-46.500;2022-08-19T01:20:58;12.55;;;4.12;;
21014;SDS011;19207;-23.482;-46.500;2022-08-19T01:23:46;7.03;;;3.70;;
21014;SDS011;19207;-23.482;-46.500;2022-08-19T01:26:34;5.62;;;3.45;;
21014;SDS011;19207;-23.482;-46.500;2022-08-19T01:29:23;7.03;;;3.50;;
21014;SDS011;19207;-23.482;-46.500;2022-08-19T01:32:13;11.23;;;3.78;;
21014;SDS011;19207;-23.482;-46.500;2022-08-19T01:35:03;6.57;;;3.28;;
21014;SDS011;19207;-23.482;-46.500;2022-08-19T01:37:51;7.22;;;3.50;;
21014;SDS011;19207;-23.482;-46.500;2022-08-19T01:40:38;8.20;;;3.55;;
21014;SDS011;19207;-23.482;-46.500;2022-08-19T01:43:25;9.25;;;3.47;;
21014;SDS011;19207;-23.482;-46.500;2022-08-19T01:46:11;8.25;;;4.15;;
21014;SDS011;19207;-23.482;-46.500;2022-08-19T01:48:58;10.23;;;3.90;;
21014;SDS011;19207;-23.482;-46.500;2022-08-19T01:51:45;11.98;;;3.70;;
21014;SDS011;19207;-23.482;-46.500;2022-08-19T01:54:32;11.05;;;4.00;;
21014;SDS011;19207;-23.482;-46.500;2022-08-19T01:57:18;6.75;;;3.10;;
21014;SDS011;19207;-23.482;-46.500;2022-08-19T02:00:06;5.35;;;2.55;;
21014;SDS011;19207;-23.482;-46.500;2022-08-19T02:02:56;8.00;;;2.83;;
21014;SDS011;19207;-23.482;-46.500;2022-08-19T02:05:42;5.50;;;2.97;;
21014;SDS011;19207;-23.482;-46.500;2022-08-19T02:08:29;9.25;;;2.85;;
21014;SDS011;19207;-23.482;-46.500;2022-08-19T02:11:21;9.00;;;2.97;;
21014;SDS011;19207;-23.482;-46.500;2022-08-19T02:14:08;7.18;;;3.25;;
21014;SDS011;19207;-23.482;-46.500;2022-08-19T02:16:54;6.75;;;3.03;;
21014;SDS011;19207;-23.482;-46.500;2022-08-19T02:19:42;11.70;;;4.35;;
21014;SDS011;19207;-23.482;-46.500;2022-08-19T02:22:28;7.10;;;3.30;;
21014;SDS011;19207;-23.482;-46.500;2022-08-19T02:25:15;5.15;;;3.20;;
21014;SDS011;19207;-23.482;-46.500;2022-08-19T02:28:01;9.13;;;4.15;;
21014;SDS011;19207;-23.482;-46.500;2022-08-19T02:30:48;6.65;;;3.05;;
21014;SDS011;19207;-23.482;-46.500;2022-08-19T02:33:35;8.57;;;3.45;;
21014;SDS011;19207;-23.482;-46.500;2022-08-19T02:36:22;10.05;;;4.50;;
21014;SDS011;19207;-23.482;-46.500;2022-08-19T02:39:09;12.80;;;4.30;;
21014;SDS011;19207;-23.482;-46.500;2022-08-19T02:41:55;7.85;;;4.22;;
21014;SDS011;19207;-23.482;-46.500;2022-08-19T02:44:45;14.32;;;5.00;;
21014;SDS011;19207;-23.482;-46.500;2022-08-19T02:47:31;10.50;;;4.68;;
21014;SDS011;19207;-23.482;-46.500;2022-08-19T02:50:18;10.38;;;4.57;;
21014;SDS011;19207;-23.482;-46.500;2022-08-19T02:53:05;10.63;;;4.68;;
21014;SDS011;19207;-23.482;-46.500;2022-08-19T02:55:53;8.88;;;4.45;;
21014;SDS011;19207;-23.482;-46.500;2022-08-19T02:58:39;10.68;;;4.10;;
21014;SDS011;19207;-23.482;-46.500;2022-08-19T03:01:27;7.25;;;4.03;;
21014;SDS011;19207;-23.482;-46.500;2022-08-19T03:04:14;13.50;;;5.15;;
21014;SDS011;19207;-23.482;-46.500;2022-08-19T03:07:01;8.82;;;4.28;;
21014;SDS011;19207;-23.482;-46.500;2022-08-19T03:09:47;11.98;;;3.85;;
21014;SDS011;19207;-23.482;-46.500;2022-08-19T03:12:37;7.78;;;3.78;;
21014;SDS011;19207;-23.482;-46.500;2022-08-19T03:15:24;8.30;;;3.45;;
21014;SDS011;19207;-23.482;-46.500;2022-08-19T03:18:11;8.68;;;3.85;;
21014;SDS011;19207;-23.482;-46.500;2022-08-19T03:20:58;8.25;;;3.37;;
21014;SDS011;19207;-23.482;-46.500;2022-08-19T03:23:45;7.43;;;3.47;;
21014;SDS011;19207;-23.482;-46.500;2022-08-19T03:26:33;8.52;;;3.30;;
21014;SDS011;19207;-23.482;-46.500;2022-08-19T03:29:19;6.93;;;3.60;;
21014;SDS011;19207;-23.482;-46.500;2022-08-19T03:32:06;8.20;;;2.97;;
21014;SDS011;19207;-23.482;-46.500;2022-08-19T03:34:52;5.32;;;2.85;;
21014;SDS011;19207;-23.482;-46.500;2022-08-19T03:37:39;7.12;;;2.20;;
21014;SDS011;19207;-23.482;-46.500;2022-08-19T03:40:25;5.18;;;2.30;;
21014;SDS011;19207;-23.482;-46.500;2022-08-19T03:43:12;6.18;;;2.20;;
21014;SDS011;19207;-23.482;-46.500;2022-08-19T03:46:07;4.85;;;1.92;;
21014;SDS011;19207;-23.482;-46.500;2022-08-19T03:48:55;4.03;;;2.30;;
21014;SDS011;19207;-23.482;-46.500;2022-08-19T03:51:42;6.37;;;2.00;;
21014;SDS011;19207;-23.482;-46.500;2022-08-19T03:54:28;9.55;;;1.80;;
21014;SDS011;19207;-23.482;-46.500;2022-08-19T03:57:15;3.15;;;1.92;;
21014;SDS011;19207;-23.482;-46.500;2022-08-19T04:00:03;4.05;;;2.03;;
21014;SDS011;19207;-23.482;-46.500;2022-08-19T04:02:51;6.68;;;1.90;;
21014;SDS011;19207;-23.482;-46.500;2022-08-19T04:05:38;4.03;;;2.00;;
21014;SDS011;19207;-23.482;-46.500;2022-08-19T04:08:24;5.12;;;1.60;;
21014;SDS011;19207;-23.482;-46.500;2022-08-19T04:11:13;2.30;;;1.50;;
21014;SDS011;19207;-23.482;-46.500;2022-08-19T04:13:59;4.50;;;1.98;;
21014;SDS011;19207;-23.482;-46.500;2022-08-19T04:16:46;5.97;;;1.77;;
21014;SDS011;19207;-23.482;-46.500;2022-08-19T04:19:34;4.55;;;1.60;;
21014;SDS011;19207;-23.482;-46.500;2022-08-19T04:22:21;5.47;;;1.87;;
21014;SDS011;19207;-23.482;-46.500;2022-08-19T04:25:08;2.45;;;1.67;;
21014;SDS011;19207;-23.482;-46.500;2022-08-19T04:27:54;3.62;;;1.50;;
21014;SDS011;19207;-23.482;-46.500;2022-08-19T04:30:42;3.42;;;2.00;;
21014;SDS011;19207;-23.482;-46.500;2022-08-19T04:33:28;2.33;;;1.55;;
21014;SDS011;19207;-23.482;-46.500;2022-08-19T04:36:20;4.22;;;1.77;;
21014;SDS011;19207;-23.482;-46.500;2022-08-19T04:39:08;3.58;;;1.80;;
21014;SDS011;19207;-23.482;-46.500;2022-08-19T04:41:55;6.22;;;1.60;;
21014;SDS011;19207;-23.482;-46.500;2022-08-19T04:45:00;5.60;;;1.90;;
21014;SDS011;19207;-23.482;-46.500;2022-08-19T04:47:48;3.53;;;2.03;;
21014;SDS011;19207;-23.482;-46.500;2022-08-19T04:50:35;2.83;;;1.77;;
21014;SDS011;19207;-23.482;-46.500;2022-08-19T04:53:23;3.17;;;1.98;;
21014;SDS011;19207;-23.482;-46.500;2022-08-19T04:56:11;4.47;;;2.35;;
21014;SDS011;19207;-23.482;-46.500;2022-08-19T04:58:59;5.87;;;2.37;;
21014;SDS011;19207;-23.482;-46.500;2022-08-19T05:01:49;4.00;;;2.12;;
21014;SDS011;19207;-23.482;-46.500;2022-08-19T05:04:36;4.35;;;2.20;;
21014;SDS011;19207;-23.482;-46.500;2022-08-19T05:07:24;7.00;;;2.00;;
21014;SDS011;19207;-23.482;-46.500;2022-08-19T05:10:11;3.87;;;2.17;;
21014;SDS011;19207;-23.482;-46.500;2022-08-19T05:12:58;4.93;;;2.40;;
21014;SDS011;19207;-23.482;-46.500;2022-08-19T05:15:52;3.62;;;2.30;;
21014;SDS011;19207;-23.482;-46.500;2022-08-19T05:18:40;3.62;;;2.35;;
21014;SDS011;19207;-23.482;-46.500;2022-08-19T05:21:45;4.03;;;2.25;;
21014;SDS011;19207;-23.482;-46.500;2022-08-19T05:24:50;1.30;;;0.90;;
21014;SDS011;19207;-23.482;-46.500;2022-08-19T05:27:37;0.85;;;0.70;;
21014;SDS011;19207;-23.482;-46.500;2022-08-19T05:30:23;0.62;;;0.60;;
21014;SDS011;19207;-23.482;-46.500;2022-08-19T05:33:10;0.47;;;0.37;;
21014;SDS011;19207;-23.482;-46.500;2022-08-19T05:35:56;0.50;;;0.50;;
21014;SDS011;19207;-23.482;-46.500;2022-08-19T05:38:43;0.40;;;0.40;;
21014;SDS011;19207;-23.482;-46.500;2022-08-19T05:41:30;2.22;;;0.40;;
21014;SDS011;19207;-23.482;-46.500;2022-08-19T05:44:16;0.50;;;0.43;;
21014;SDS011;19207;-23.482;-46.500;2022-08-19T05:47:03;0.30;;;0.30;;
21014;SDS011;19207;-23.482;-46.500;2022-08-19T05:49:50;0.43;;;0.40;;
21014;SDS011;19207;-23.482;-46.500;2022-08-19T05:52:37;0.40;;;0.40;;
21014;SDS011;19207;-23.482;-46.500;2022-08-19T05:55:24;1.67;;;0.80;;
21014;SDS011;19207;-23.482;-46.500;2022-08-19T05:58:11;3.53;;;1.40;;
21014;SDS011;19207;-23.482;-46.500;2022-08-19T06:00:58;4.85;;;2.28;;
21014;SDS011;19207;-23.482;-46.500;2022-08-19T06:03:49;4.40;;;1.98;;
21014;SDS011;19207;-23.482;-46.500;2022-08-19T06:06:35;5.18;;;2.37;;
21014;SDS011;19207;-23.482;-46.500;2022-08-19T06:09:22;4.72;;;2.40;;
21014;SDS011;19207;-23.482;-46.500;2022-08-19T06:12:09;3.87;;;2.22;;
21014;SDS011;19207;-23.482;-46.500;2022-08-19T06:14:55;2.53;;;1.40;;
21014;SDS011;19207;-23.482;-46.500;2022-08-19T06:17:42;1.58;;;1.20;;
21014;SDS011;19207;-23.482;-46.500;2022-08-19T06:20:31;0.60;;;0.60;;
21014;SDS011;19207;-23.482;-46.500;2022-08-19T06:23:17;1.55;;;0.70;;
21014;SDS011;19207;-23.482;-46.500;2022-08-19T06:26:05;2.05;;;0.60;;
21014;SDS011;19207;-23.482;-46.500;2022-08-19T06:28:53;0.60;;;0.60;;
21014;SDS011;19207;-23.482;-46.500;2022-08-19T06:31:43;0.30;;;0.30;;
21014;SDS011;19207;-23.482;-46.500;2022-08-19T06:34:31;0.40;;;0.40;;
21014;SDS011;19207;-23.482;-46.500;2022-08-19T06:37:17;0.77;;;0.50;;
21014;SDS011;19207;-23.482;-46.500;2022-08-19T06:40:06;0.55;;;0.45;;
21014;SDS011;19207;-23.482;-46.500;2022-08-19T06:42:57;0.73;;;0.40;;
21014;SDS011;19207;-23.482;-46.500;2022-08-19T06:45:45;0.43;;;0.43;;
21014;SDS011;19207;-23.482;-46.500;2022-08-19T06:48:31;1.65;;;0.70;;
21014;SDS011;19207;-23.482;-46.500;2022-08-19T06:51:19;1.87;;;0.88;;
21014;SDS011;19207;-23.482;-46.500;2022-08-19T06:54:07;0.70;;;0.70;;
21014;SDS011;19207;-23.482;-46.500;2022-08-19T06:56:54;1.48;;;0.60;;
21014;SDS011;19207;-23.482;-46.500;2022-08-19T06:59:41;0.37;;;0.37;;
21014;SDS011;19207;-23.482;-46.500;2022-08-19T07:02:28;0.95;;;0.52;;
21014;SDS011;19207;-23.482;-46.500;2022-08-19T07:05:14;0.57;;;0.50;;
21014;SDS011;19207;-23.482;-46.500;2022-08-19T07:08:01;1.95;;;0.60;;
21014;SDS011;19207;-23.482;-46.500;2022-08-19T07:10:49;0.60;;;0.60;;
21014;SDS011;19207;-23.482;-46.500;2022-08-19T07:13:35;0.62;;;0.55;;
21014;SDS011;19207;-23.482;-46.500;2022-08-19T07:16:22;0.50;;;0.50;;
21014;SDS011;19207;-23.482;-46.500;2022-08-19T07:19:09;0.50;;;0.50;;
21014;SDS011;19207;-23.482;-46.500;2022-08-19T07:21:56;0.70;;;0.50;;
21014;SDS011;19207;-23.482;-46.500;2022-08-19T07:24:43;1.80;;;1.05;;
21014;SDS011;19207;-23.482;-46.500;2022-08-19T07:27:30;0.88;;;0.73;;
21014;SDS011;19207;-23.482;-46.500;2022-08-19T07:30:17;0.88;;;0.60;;
21014;SDS011;19207;-23.482;-46.500;2022-08-19T07:33:03;2.37;;;0.85;;
21014;SDS011;19207;-23.482;-46.500;2022-08-19T07:35:50;0.57;;;0.57;;
21014;SDS011;19207;-23.482;-46.500;2022-08-19T07:38:38;0.60;;;0.60;;
21014;SDS011;19207;-23.482;-46.500;2022-08-19T07:41:26;0.40;;;0.40;;
21014;SDS011;19207;-23.482;-46.500;2022-08-19T07:44:17;0.90;;;0.55;;
21014;SDS011;19207;-23.482;-46.500;2022-08-19T07:47:05;0.93;;;0.60;;
21014;SDS011;19207;-23.482;-46.500;2022-08-19T07:49:51;0.57;;;0.50;;
21014;SDS011;19207;-23.482;-46.500;2022-08-19T07:52:39;1.25;;;0.60;;
21014;SDS011;19207;-23.482;-46.500;2022-08-19T07:55:26;3.65;;;1.00;;
21014;SDS011;19207;-23.482;-46.500;2022-08-19T07:58:14;1.05;;;0.68;;
21014;SDS011;19207;-23.482;-46.500;2022-08-19T08:01:00;1.00;;;0.60;;
21014;SDS011;19207;-23.482;-46.500;2022-08-19T08:03:48;1.70;;;0.68;;
21014;SDS011;19207;-23.482;-46.500;2022-08-19T08:06:53;0.60;;;0.60;;
21014;SDS011;19207;-23.482;-46.500;2022-08-19T08:09:58;0.73;;;0.52;;
21014;SDS011;19207;-23.482;-46.500;2022-08-19T08:12:44;0.50;;;0.50;;
21014;SDS011;19207;-23.482;-46.500;2022-08-19T08:15:31;0.40;;;0.40;;
21014;SDS011;19207;-23.482;-46.500;2022-08-19T08:18:17;1.05;;;0.80;;
21014;SDS011;19207;-23.482;-46.500;2022-08-19T08:21:05;0.98;;;0.80;;
21014;SDS011;19207;-23.482;-46.500;2022-08-19T08:23:52;1.25;;;0.70;;
21014;SDS011;19207;-23.482;-46.500;2022-08-19T08:26:40;1.23;;;0.88;;
21014;SDS011;19207;-23.482;-46.500;2022-08-19T08:29:28;1.90;;;1.02;;
21014;SDS011;19207;-23.482;-46.500;2022-08-19T08:32:15;1.75;;;1.10;;
21014;SDS011;19207;-23.482;-46.500;2022-08-19T08:35:02;0.75;;;0.75;;
21014;SDS011;19207;-23.482;-46.500;2022-08-19T08:37:49;0.80;;;0.80;;
21014;SDS011;19207;-23.482;-46.500;2022-08-19T08:43:36;3.45;;;2.10;;
21014;SDS011;19207;-23.482;-46.500;2022-08-19T08:46:38;1.27;;;1.10;;
21014;SDS011;19207;-23.482;-46.500;2022-08-19T08:49:28;2.35;;;1.45;;
21014;SDS011;19207;-23.482;-46.500;2022-08-19T08:52:18;7.18;;;1.30;;
21014;SDS011;19207;-23.482;-46.500;2022-08-19T08:55:14;2.95;;;1.17;;
21014;SDS011;19207;-23.482;-46.500;2022-08-19T08:58:03;1.67;;;1.52;;
21014;SDS011;19207;-23.482;-46.500;2022-08-19T09:00:51;2.28;;;1.40;;
21014;SDS011;19207;-23.482;-46.500;2022-08-19T09:03:38;4.53;;;1.58;;
21014;SDS011;19207;-23.482;-46.500;2022-08-19T09:09:33;4.87;;;1.60;;
21014;SDS011;19207;-23.482;-46.500;2022-08-19T09:15:35;2.28;;;1.27;;
21014;SDS011;19207;-23.482;-46.500;2022-08-19T09:18:22;3.17;;;1.70;;
21014;SDS011;19207;-23.482;-46.500;2022-08-19T09:21:09;4.40;;;1.92;;
21014;SDS011;19207;-23.482;-46.500;2022-08-19T09:23:55;6.68;;;1.50;;
21014;SDS011;19207;-23.482;-46.500;2022-08-19T09:26:43;1.73;;;1.40;;
21014;SDS011;19207;-23.482;-46.500;2022-08-19T09:29:30;4.32;;;1.33;;
21014;SDS011;19207;-23.482;-46.500;2022-08-19T09:32:17;2.75;;;1.20;;
21014;SDS011;19207;-23.482;-46.500;2022-08-19T09:35:04;2.50;;;1.30;;
21014;SDS011;19207;-23.482;-46.500;2022-08-19T09:37:51;3.58;;;1.30;;
21014;SDS011;19207;-23.482;-46.500;2022-08-19T09:40:38;2.30;;;1.40;;
21014;SDS011;19207;-23.482;-46.500;2022-08-19T09:43:25;2.25;;;1.30;;
21014;SDS011;19207;-23.482;-46.500;2022-08-19T09:46:13;1.08;;;0.70;;
21014;SDS011;19207;-23.482;-46.500;2022-08-19T09:49:01;0.70;;;0.70;;
21014;SDS011;19207;-23.482;-46.500;2022-08-19T09:51:49;0.62;;;0.43;;
21014;SDS011;19207;-23.482;-46.500;2022-08-19T09:54:37;0.57;;;0.50;;
21014;SDS011;19207;-23.482;-46.500;2022-08-19T09:57:23;1.55;;;0.73;;
21014;SDS011;19207;-23.482;-46.500;2022-08-19T10:00:10;0.60;;;0.60;;
21014;SDS011;19207;-23.482;-46.500;2022-08-19T10:02:57;0.50;;;0.50;;
21014;SDS011;19207;-23.482;-46.500;2022-08-19T10:05:44;0.90;;;0.65;;
21014;SDS011;19207;-23.482;-46.500;2022-08-19T10:08:35;1.10;;;0.85;;
21014;SDS011;19207;-23.482;-46.500;2022-08-19T10:11:22;1.77;;;0.98;;
21014;SDS011;19207;-23.482;-46.500;2022-08-19T10:14:08;2.20;;;1.30;;
21014;SDS011;19207;-23.482;-46.500;2022-08-19T10:16:55;2.00;;;1.40;;
21014;SDS011;19207;-23.482;-46.500;2022-08-19T10:19:42;1.90;;;1.05;;
21014;SDS011;19207;-23.482;-46.500;2022-08-19T10:22:29;2.78;;;1.08;;
21014;SDS011;19207;-23.482;-46.500;2022-08-19T10:25:15;3.70;;;1.15;;
21014;SDS011;19207;-23.482;-46.500;2022-08-19T10:28:03;2.60;;;1.08;;
21014;SDS011;19207;-23.482;-46.500;2022-08-19T10:30:50;1.50;;;1.05;;
21014;SDS011;19207;-23.482;-46.500;2022-08-19T10:33:38;1.23;;;0.90;;
21014;SDS011;19207;-23.482;-46.500;2022-08-19T10:36:27;0.98;;;0.80;;
21014;SDS011;19207;-23.482;-46.500;2022-08-19T10:39:13;0.90;;;0.80;;
21014;SDS011;19207;-23.482;-46.500;2022-08-19T10:42:03;2.40;;;0.90;;
21014;SDS011;19207;-23.482;-46.500;2022-08-19T10:44:50;2.60;;;0.88;;
21014;SDS011;19207;-23.482;-46.500;2022-08-19T10:47:37;2.17;;;0.90;;
21014;SDS011;19207;-23.482;-46.500;2022-08-19T10:50:23;2.53;;;1.00;;
21014;SDS011;19207;-23.482;-46.500;2022-08-19T10:53:28;6.25;;;1.40;;
21014;SDS011;19207;-23.482;-46.500;2022-08-19T10:56:14;1.33;;;1.00;;
21014;SDS011;19207;-23.482;-46.500;2022-08-19T10:59:23;3.30;;;1.40;;
21014;SDS011;19207;-23.482;-46.500;2022-08-19T11:02:12;2.58;;;1.20;;
21014;SDS011;19207;-23.482;-46.500;2022-08-19T11:04:58;2.97;;;1.15;;
21014;SDS011;19207;-23.482;-46.500;2022-08-19T11:07:45;2.12;;;1.50;;
21014;SDS011;19207;-23.482;-46.500;2022-08-19T11:10:31;2.72;;;1.65;;
21014;SDS011;19207;-23.482;-46.500;2022-08-19T11:13:18;5.10;;;1.35;;
21014;SDS011;19207;-23.482;-46.500;2022-08-19T11:16:08;2.40;;;1.40;;
21014;SDS011;19207;-23.482;-46.500;2022-08-19T11:18:56;1.20;;;0.80;;
21014;SDS011;19207;-23.482;-46.500;2022-08-19T11:21:48;1.37;;;1.00;;
21014;SDS011;19207;-23.482;-46.500;2022-08-19T11:24:35;2.72;;;1.15;;
21014;SDS011;19207;-23.482;-46.500;2022-08-19T11:27:21;3.40;;;1.35;;
21014;SDS011;19207;-23.482;-46.500;2022-08-19T11:30:08;2.08;;;1.62;;
21014;SDS011;19207;-23.482;-46.500;2022-08-19T11:32:55;3.20;;;2.08;;
21014;SDS011;19207;-23.482;-46.500;2022-08-19T11:35:42;4.68;;;2.90;;
21014;SDS011;19207;-23.482;-46.500;2022-08-19T11:38:28;4.10;;;2.15;;
21014;SDS011;19207;-23.482;-46.500;2022-08-19T11:41:16;5.05;;;3.03;;
21014;SDS011;19207;-23.482;-46.500;2022-08-19T11:44:03;6.53;;;4.05;;
21014;SDS011;19207;-23.482;-46.500;2022-08-19T11:46:51;14.95;;;4.50;;
21014;SDS011;19207;-23.482;-46.500;2022-08-19T11:49:37;8.10;;;4.45;;
21014;SDS011;19207;-23.482;-46.500;2022-08-19T11:52:24;9.23;;;3.90;;
21014;SDS011;19207;-23.482;-46.500;2022-08-19T11:55:11;8.57;;;2.97;;
21014;SDS011;19207;-23.482;-46.500;2022-08-19T11:57:58;5.82;;;3.17;;
21014;SDS011;19207;-23.482;-46.500;2022-08-19T12:00:44;4.43;;;3.05;;
21014;SDS011;19207;-23.482;-46.500;2022-08-19T12:03:30;7.28;;;3.08;;
21014;SDS011;19207;-23.482;-46.500;2022-08-19T12:06:19;4.47;;;3.10;;
21014;SDS011;19207;-23.482;-46.500;2022-08-19T12:09:10;6.32;;;3.20;;
21014;SDS011;19207;-23.482;-46.500;2022-08-19T12:11:57;4.35;;;2.83;;
21014;SDS011;19207;-23.482;-46.500;2022-08-19T12:14:43;6.57;;;2.90;;
21014;SDS011;19207;-23.482;-46.500;2022-08-19T12:17:31;5.12;;;2.58;;
21014;SDS011;19207;-23.482;-46.500;2022-08-19T12:20:18;7.12;;;2.50;;
21014;SDS011;19207;-23.482;-46.500;2022-08-19T12:23:05;2.20;;;1.60;;
21014;SDS011;19207;-23.482;-46.500;2022-08-19T12:25:52;1.62;;;1.30;;
21014;SDS011;19207;-23.482;-46.500;2022-08-19T12:28:39;1.55;;;1.15;;
21014;SDS011;19207;-23.482;-46.500;2022-08-19T12:31:27;2.70;;;1.30;;
21014;SDS011;19207;-23.482;-46.500;2022-08-19T12:34:14;6.70;;;2.47;;
21014;SDS011;19207;-23.482;-46.500;2022-08-19T12:37:02;4.85;;;2.05;;
21014;SDS011;19207;-23.482;-46.500;2022-08-19T12:39:49;3.62;;;1.60;;
21014;SDS011;19207;-23.482;-46.500;2022-08-19T12:42:35;4.03;;;1.75;;
21014;SDS011;19207;-23.482;-46.500;2022-08-19T12:45:22;2.47;;;1.52;;
21014;SDS011;19207;-23.482;-46.500;2022-08-19T12:48:09;4.87;;;2.08;;
21014;SDS011;19207;-23.482;-46.500;2022-08-19T12:50:56;6.68;;;1.75;;
21014;SDS011;19207;-23.482;-46.500;2022-08-19T12:53:43;4.37;;;1.80;;
21014;SDS011;19207;-23.482;-46.500;2022-08-19T12:56:30;3.65;;;2.00;;
21014;SDS011;19207;-23.482;-46.500;2022-08-19T12:59:18;6.60;;;2.35;;
21014;SDS011;19207;-23.482;-46.500;2022-08-19T13:02:05;5.45;;;2.20;;
21014;SDS011;19207;-23.482;-46.500;2022-08-19T13:04:52;4.47;;;2.62;;
21014;SDS011;19207;-23.482;-46.500;2022-08-19T13:07:40;5.78;;;2.80;;
21014;SDS011;19207;-23.482;-46.500;2022-08-19T13:10:33;9.32;;;3.80;;
21014;SDS011;19207;-23.482;-46.500;2022-08-19T13:13:19;7.82;;;3.15;;
21014;SDS011;19207;-23.482;-46.500;2022-08-19T13:16:06;10.23;;;3.58;;
21014;SDS011;19207;-23.482;-46.500;2022-08-19T13:18:52;10.85;;;4.53;;
21014;SDS011;19207;-23.482;-46.500;2022-08-19T13:21:39;7.47;;;4.25;;
21014;SDS011;19207;-23.482;-46.500;2022-08-19T13:24:25;6.53;;;3.80;;
21014;SDS011;19207;-23.482;-46.500;2022-08-19T13:27:12;11.32;;;3.67;;
21014;SDS011;19207;-23.482;-46.500;2022-08-19T13:29:58;6.43;;;3.20;;
21014;SDS011;19207;-23.482;-46.500;2022-08-19T13:33:04;6.75;;;3.50;;
21014;SDS011;19207;-23.482;-46.500;2022-08-19T13:35:57;10.15;;;3.92;;
21014;SDS011;19207;-23.482;-46.500;2022-08-19T13:38:46;8.48;;;3.78;;
21014;SDS011;19207;-23.482;-46.500;2022-08-19T13:41:32;8.30;;;5.07;;
21014;SDS011;19207;-23.482;-46.500;2022-08-19T13:44:19;10.73;;;5.50;;
21014;SDS011;19207;-23.482;-46.500;2022-08-19T13:47:05;7.30;;;4.43;;
21014;SDS011;19207;-23.482;-46.500;2022-08-19T13:49:53;7.62;;;4.20;;
21014;SDS011;19207;-23.482;-46.500;2022-08-19T13:52:39;7.12;;;4.10;;
21014;SDS011;19207;-23.482;-46.500;2022-08-19T13:55:26;9.75;;;3.80;;
21014;SDS011;19207;-23.482;-46.500;2022-08-19T13:58:13;9.23;;;3.40;;
21014;SDS011;19207;-23.482;-46.500;2022-08-19T14:00:59;7.53;;;3.72;;
21014;SDS011;19207;-23.482;-46.500;2022-08-19T14:03:46;5.72;;;2.70;;
21014;SDS011;19207;-23.482;-46.500;2022-08-19T14:06:33;4.10;;;2.47;;
21014;SDS011;19207;-23.482;-46.500;2022-08-19T14:09:20;5.10;;;2.80;;
21014;SDS011;19207;-23.482;-46.500;2022-08-19T14:12:07;7.00;;;2.70;;
21014;SDS011;19207;-23.482;-46.500;2022-08-19T14:14:53;5.87;;;3.15;;
21014;SDS011;19207;-23.482;-46.500;2022-08-19T14:17:41;5.28;;;2.20;;
21014;SDS011;19207;-23.482;-46.500;2022-08-19T14:20:27;5.40;;;2.25;;
21014;SDS011;19207;-23.482;-46.500;2022-08-19T14:23:14;6.80;;;3.35;;
21014;SDS011;19207;-23.482;-46.500;2022-08-19T14:26:04;7.70;;;4.00;;
21014;SDS011;19207;-23.482;-46.500;2022-08-19T14:28:51;9.10;;;4.10;;
21014;SDS011;19207;-23.482;-46.500;2022-08-19T14:31:39;5.60;;;3.20;;
21014;SDS011;19207;-23.482;-46.500;2022-08-19T14:34:26;4.37;;;2.70;;
21014;SDS011;19207;-23.482;-46.500;2022-08-19T14:37:14;6.40;;;3.70;;
21014;SDS011;19207;-23.482;-46.500;2022-08-19T14:40:01;8.25;;;4.32;;
21014;SDS011;19207;-23.482;-46.500;2022-08-19T14:42:48;8.63;;;4.05;;
21014;SDS011;19207;-23.482;-46.500;2022-08-19T14:45:36;6.95;;;3.17;;
21014;SDS011;19207;-23.482;-46.500;2022-08-19T14:48:23;12.00;;;2.85;;
21014;SDS011;19207;-23.482;-46.500;2022-08-19T14:51:09;6.95;;;2.92;;
21014;SDS011;19207;-23.482;-46.500;2022-08-19T14:53:56;7.70;;;2.30;;
21014;SDS011;19207;-23.482;-46.500;2022-08-19T14:56:42;6.10;;;2.37;;
21014;SDS011;19207;-23.482;-46.500;2022-08-19T14:59:29;7.30;;;2.70;;
21014;SDS011;19207;-23.482;-46.500;2022-08-19T15:02:16;5.43;;;1.83;;
21014;SDS011;19207;-23.482;-46.500;2022-08-19T15:05:03;6.30;;;1.62;;
21014;SDS011;19207;-23.482;-46.500;2022-08-19T15:07:50;8.90;;;2.75;;
21014;SDS011;19207;-23.482;-46.500;2022-08-19T15:10:39;9.00;;;2.50;;
21014;SDS011;19207;-23.482;-46.500;2022-08-19T15:13:26;8.32;;;3.08;;
21014;SDS011;19207;-23.482;-46.500;2022-08-19T15:16:13;5.00;;;2.30;;
21014;SDS011;19207;-23.482;-46.500;2022-08-19T15:19:00;5.10;;;2.55;;
21014;SDS011;19207;-23.482;-46.500;2022-08-19T15:21:46;6.03;;;2.90;;
21014;SDS011;19207;-23.482;-46.500;2022-08-19T15:24:33;7.65;;;3.35;;
21014;SDS011;19207;-23.482;-46.500;2022-08-19T15:27:20;7.30;;;3.10;;
21014;SDS011;19207;-23.482;-46.500;2022-08-19T15:30:07;6.62;;;2.95;;
21014;SDS011;19207;-23.482;-46.500;2022-08-19T15:32:54;7.35;;;2.28;;
21014;SDS011;19207;-23.482;-46.500;2022-08-19T15:35:41;7.85;;;2.50;;
21014;SDS011;19207;-23.482;-46.500;2022-08-19T15:38:28;5.95;;;2.30;;
21014;SDS011;19207;-23.482;-46.500;2022-08-19T15:41:20;3.87;;;2.35;;
21014;SDS011;19207;-23.482;-46.500;2022-08-19T15:44:11;8.90;;;2.33;;
21014;SDS011;19207;-23.482;-46.500;2022-08-19T15:46:58;9.60;;;2.83;;
21014;SDS011;19207;-23.482;-46.500;2022-08-19T15:49:45;15.57;;;2.60;;
21014;SDS011;19207;-23.482;-46.500;2022-08-19T15:52:31;6.07;;;2.25;;
21014;SDS011;19207;-23.482;-46.500;2022-08-19T15:55:18;8.93;;;2.70;;
21014;SDS011;19207;-23.482;-46.500;2022-08-19T15:58:10;10.52;;;2.60;;
21014;SDS011;19207;-23.482;-46.500;2022-08-19T16:01:15;7.78;;;2.20;;
21014;SDS011;19207;-23.482;-46.500;2022-08-19T16:04:20;10.48;;;2.60;;
21014;SDS011;19207;-23.482;-46.500;2022-08-19T16:07:25;12.63;;;2.95;;
21014;SDS011;19207;-23.482;-46.500;2022-08-19T16:10:12;13.05;;;2.78;;
21014;SDS011;19207;-23.482;-46.500;2022-08-19T16:12:59;8.80;;;2.30;;